Time;durP1;ratioP1;P1;durP2;ratioP2;P2;SDS_P1;SDS_P2;PMS_P1;PMS_P2;Temp;Humidity;BMP_temperature;BMP_pressure;BME280_temperature;BME280_humidity;BME280_pressure;Samples;Min_cycle;Max_cycle;Signal;HPM_P1;HPM_P2
2021/06/30 00:00:18;;;;;;;1.63;1.53;;;;;;;22.06;100.00;97120.78;4996287;28;20492;-68
2021/06/30 00:02:49;;;;;;;2.70;1.50;;;;;;;21.75;100.00;97058.66;5042158;28;20232;-67
2021/06/30 00:05:21;;;;;;;1.50;1.30;;;;;;;22.21;100.00;97140.69;5036651;28;20278;-68
2021/06/30 00:07:51;;;;;;;1.40;1.30;;;;;;;22.02;100.00;97115.56;5022398;28;20245;-68
2021/06/30 00:10:22;;;;;;;1.93;1.50;;;;;;;21.85;100.00;97092.19;5030564;28;20200;-69
2021/06/30 00:12:54;;;;;;;1.80;1.40;;;;;;;22.14;100.00;97133.72;5022393;28;20282;-69
2021/06/30 00:15:27;;;;;;;1.43;1.30;;;;;;;22.15;100.00;97132.88;5049200;22;20256;-61
2021/06/30 00:17:59;;;;;;;2.20;1.40;;;;;;;22.20;100.00;97132.13;5027132;28;20201;-61
2021/06/30 00:20:30;;;;;;;1.70;1.30;;;;;;;22.20;100.00;97121.06;5022243;28;20224;-63
2021/06/30 00:23:02;;;;;;;1.67;1.57;;;;;;;21.93;100.00;97071.88;5022106;28;20205;-61
2021/06/30 00:25:34;;;;;;;1.47;1.37;;;;;;;22.18;100.00;97109.91;5020650;28;20605;-62
2021/06/30 00:28:05;;;;;;;1.73;1.30;;;;;;;22.21;100.00;97120.22;5018948;28;20260;-62
2021/06/30 00:30:37;;;;;;;1.60;1.50;;;;;;;22.20;100.00;97121.91;5014375;28;20206;-61
2021/06/30 00:33:09;;;;;;;1.40;1.30;;;;;;;22.20;100.00;97123.59;5017279;28;20201;-62
2021/06/30 00:35:40;;;;;;;1.20;1.10;;;;;;;22.13;100.00;97107.25;5020815;28;20229;-61
2021/06/30 00:38:12;;;;;;;1.43;1.33;;;;;;;22.16;100.00;97115.00;5008616;28;20461;-60
2021/06/30 00:40:45;;;;;;;2.00;1.53;;;;;;;22.19;100.00;97109.06;5017948;28;20256;-63
2021/06/30 00:43:18;;;;;;;1.77;1.50;;;;;;;22.13;100.00;97098.69;5015959;28;20233;-62
2021/06/30 00:45:49;;;;;;;1.30;1.20;;;;;;;22.15;100.00;97097.06;5018077;28;20222;-62
2021/06/30 00:48:21;;;;;;;1.40;1.30;;;;;;;22.19;100.00;97098.81;5014074;28;20233;-62
2021/06/30 00:50:52;;;;;;;1.53;1.43;;;;;;;22.20;100.00;97103.13;5021787;28;20256;-61
2021/06/30 00:53:24;;;;;;;1.73;1.30;;;;;;;22.19;100.00;97097.13;5020878;28;20264;-61
2021/06/30 00:55:55;;;;;;;1.50;1.40;;;;;;;22.19;100.00;97092.03;5020412;28;20218;-61
2021/06/30 00:58:27;;;;;;;2.13;1.57;;;;;;;22.16;100.00;97088.53;5027310;28;20232;-61
2021/06/30 01:00:58;;;;;;;1.83;1.50;;;;;;;22.20;100.00;97098.00;5007184;28;20680;-62
2021/06/30 01:03:30;;;;;;;1.83;1.50;;;;;;;22.20;100.00;97087.78;5012352;28;20592;-62
2021/06/30 01:06:01;;;;;;;1.43;1.33;;;;;;;22.19;100.00;97081.78;5016077;28;20229;-63
2021/06/30 01:08:33;;;;;;;1.40;1.30;;;;;;;22.20;100.00;97082.66;5022416;28;20239;-59
2021/06/30 01:11:05;;;;;;;1.50;1.40;;;;;;;22.20;100.00;97082.66;5021287;28;20202;-61
2021/06/30 01:13:36;;;;;;;1.57;1.43;;;;;;;22.19;100.00;97092.03;5019265;28;20206;-62
2021/06/30 01:16:08;;;;;;;1.30;1.20;;;;;;;22.16;100.00;97085.97;5012607;28;20479;-61
2021/06/30 01:18:40;;;;;;;8.13;1.40;;;;;;;22.19;100.00;97098.81;5017465;28;20235;-58
2021/06/30 01:21:11;;;;;;;1.57;1.47;;;;;;;22.18;100.00;97095.44;5022096;28;20205;-59
2021/06/30 01:23:44;;;;;;;2.20;1.70;;;;;;;22.19;100.00;97092.03;5016180;28;20264;-59
2021/06/30 01:26:15;;;;;;;1.50;1.40;;;;;;;22.19;100.00;97093.72;5022193;28;20675;-62
2021/06/30 01:28:47;;;;;;;1.50;1.40;;;;;;;22.19;100.00;97101.38;5027187;28;20888;-61
2021/06/30 01:31:18;;;;;;;1.40;1.30;;;;;;;22.19;100.00;97097.13;5021389;28;20633;-62
2021/06/30 01:33:50;;;;;;;1.70;1.47;;;;;;;22.19;100.00;97102.25;5025812;28;20202;-60
2021/06/30 01:36:16;;;;;;;2.73;1.53;;;;;;;22.19;100.00;97098.81;5024661;28;20765;-60
2021/06/30 01:38:48;;;;;;;1.40;1.30;;;;;;;22.19;100.00;97093.72;5019687;28;20292;-61
2021/06/30 01:41:19;;;;;;;1.73;1.63;;;;;;;22.19;100.00;97093.72;5015697;28;20229;-61
2021/06/30 01:43:51;;;;;;;1.40;1.30;;;;;;;22.19;100.00;97102.25;5022681;28;20202;-62
2021/06/30 01:46:23;;;;;;;1.50;1.40;;;;;;;22.19;100.00;97109.06;5024052;28;20287;-60
2021/06/30 01:48:54;;;;;;;1.40;1.30;;;;;;;22.19;100.00;97102.25;5011534;28;20742;-59
2021/06/30 01:51:26;;;;;;;1.37;1.27;;;;;;;22.15;100.00;97097.94;5020048;28;20268;-61
2021/06/30 01:53:58;;;;;;;1.30;1.20;;;;;;;22.18;100.00;97100.53;5021001;28;20206;-60
2021/06/30 01:56:31;;;;;;;1.30;1.20;;;;;;;22.18;100.00;97103.09;5015320;28;20262;-61
2021/06/30 01:59:06;;;;;;;1.37;1.27;;;;;;;22.19;100.00;97103.94;5022731;28;20256;-61
2021/06/30 02:01:38;;;;;;;1.53;1.27;;;;;;;22.19;100.00;97114.19;5020902;28;20635;-62
2021/06/30 02:04:09;;;;;;;1.40;1.30;;;;;;;22.19;100.00;97134.66;5026304;28;20628;-61
2021/06/30 02:06:43;;;;;;;1.57;1.47;;;;;;;22.18;100.00;97130.38;5020245;28;20560;-62
2021/06/30 02:09:14;;;;;;;1.40;1.30;;;;;;;22.18;100.00;97136.38;5014632;28;20202;-58
2021/06/30 02:11:46;;;;;;;1.40;1.30;;;;;;;22.18;100.00;97138.06;5006781;28;20260;-61
2021/06/30 02:14:17;;;;;;;1.20;1.20;;;;;;;22.17;100.00;97124.38;5020154;28;20233;-60
2021/06/30 02:16:49;;;;;;;1.57;1.30;;;;;;;22.17;100.00;97115.88;5018668;28;20245;-62
2021/06/30 02:19:20;;;;;;;1.47;1.30;;;;;;;22.17;100.00;97121.84;5019751;28;20304;-62
2021/06/30 02:21:52;;;;;;;1.53;1.43;;;;;;;22.17;100.00;97132.06;5020865;28;20209;-62
2021/06/30 02:24:23;;;;;;;1.50;1.40;;;;;;;22.02;100.00;97113.00;5021973;28;20730;-61
2021/06/30 02:26:55;;;;;;;1.20;1.20;;;;;;;22.18;100.00;97138.06;5021334;28;20235;-61
2021/06/30 02:29:21;;;;;;;1.33;1.23;;;;;;;21.68;100.00;97061.06;5019348;28;20256;-62
2021/06/30 02:31:53;;;;;;;1.13;1.10;;;;;;;22.17;100.00;97142.31;5020713;28;20239;-61
2021/06/30 02:34:24;;;;;;;1.30;1.20;;;;;;;22.16;100.00;97132.03;5016017;28;20198;-61
2021/06/30 02:36:56;;;;;;;1.40;1.30;;;;;;;22.18;100.00;97144.06;5019886;28;20228;-62
2021/06/30 02:39:27;;;;;;;1.77;1.27;;;;;;;22.13;100.00;97139.66;5013307;28;20653;-61
2021/06/30 02:41:59;;;;;;;1.17;1.17;;;;;;;22.18;100.00;97153.41;5025071;28;20291;-61
2021/06/30 02:44:30;;;;;;;1.40;1.30;;;;;;;22.13;100.00;97144.78;5024579;28;20785;-62
2021/06/30 02:47:02;;;;;;;1.20;1.20;;;;;;;22.13;100.00;97152.44;5017523;28;20630;-61
2021/06/30 02:49:34;;;;;;;2.10;1.23;;;;;;;21.70;100.00;97066.22;5006640;28;20201;-61
2021/06/30 02:52:05;;;;;;;1.60;1.47;;;;;;;22.18;100.00;97155.97;5002129;28;20202;-61
2021/06/30 02:54:37;;;;;;;1.23;1.23;;;;;;;22.15;100.00;97153.34;5020809;28;20226;-61
2021/06/30 02:57:08;;;;;;;1.37;1.27;;;;;;;22.18;100.00;97146.63;5018060;28;20210;-61
2021/06/30 02:59:40;;;;;;;1.30;1.20;;;;;;;22.18;100.00;97153.41;5020189;28;20258;-61
2021/06/30 03:02:11;;;;;;;1.30;1.20;;;;;;;22.18;100.00;97148.31;5016285;28;20189;-61
2021/06/30 03:04:43;;;;;;;1.50;1.40;;;;;;;22.16;100.00;97155.94;5018493;28;20226;-62
2021/06/30 03:07:14;;;;;;;1.30;1.20;;;;;;;22.18;100.00;97166.22;5019365;28;20636;-61
2021/06/30 03:09:46;;;;;;;1.77;1.17;;;;;;;21.65;100.00;97071.22;5001059;28;20332;-62
2021/06/30 03:12:18;;;;;;;1.10;1.10;;;;;;;21.67;100.00;97079.81;5024927;28;20199;-61
2021/06/30 03:14:50;;;;;;;2.53;1.50;;;;;;;22.12;100.00;97155.84;5023876;28;20291;-62
2021/06/30 03:17:21;;;;;;;1.40;1.30;;;;;;;22.19;100.00;97170.50;5016438;28;20214;-62
2021/06/30 03:19:53;;;;;;;1.53;1.40;;;;;;;22.14;100.00;97151.63;5022177;28;20348;-61
2021/06/30 03:22:24;;;;;;;1.37;1.27;;;;;;;22.02;100.00;97124.06;5009874;28;20201;-61
2021/06/30 03:24:56;;;;;;;1.50;1.40;;;;;;;22.11;100.00;97136.22;5004776;28;20277;-62
2021/06/30 03:27:28;;;;;;;1.40;1.30;;;;;;;22.13;100.00;97153.31;4995611;28;20262;-63
2021/06/30 03:29:59;;;;;;;1.17;1.17;;;;;;;22.13;100.00;97150.75;5018802;28;20214;-61
2021/06/30 03:32:31;;;;;;;1.10;1.10;;;;;;;22.18;100.00;97164.53;5014126;28;20214;-60
2021/06/30 03:35:03;;;;;;;1.30;1.20;;;;;;;22.18;100.00;97166.22;5021697;28;20221;-62
2021/06/30 03:37:35;;;;;;;1.37;1.27;;;;;;;22.17;100.00;97164.50;5020228;28;20206;-61
2021/06/30 03:40:07;;;;;;;1.30;1.20;;;;;;;22.18;100.00;97166.22;5016101;28;20249;-61
2021/06/30 03:42:38;;;;;;;1.33;1.23;;;;;;;22.18;100.00;97173.91;5021861;28;20205;-61
2021/06/30 03:45:10;;;;;;;1.30;1.20;;;;;;;22.18;100.00;97187.56;5020922;28;20295;-62
2021/06/30 03:47:41;;;;;;;1.20;1.20;;;;;;;22.18;100.00;97185.00;5018018;28;20210;-62
2021/06/30 03:50:13;;;;;;;1.20;1.10;;;;;;;22.13;100.00;97178.03;5018441;28;20279;-59
2021/06/30 03:52:44;;;;;;;1.10;1.10;;;;;;;22.18;100.00;97186.69;5018736;28;20210;-59
2021/06/30 03:55:16;;;;;;;1.20;1.20;;;;;;;22.17;100.00;97185.81;5025130;28;20272;-61
2021/06/30 03:57:47;;;;;;;1.30;1.20;;;;;;;22.15;100.00;97186.63;5016433;28;20198;-58
2021/06/30 04:00:19;;;;;;;1.23;1.20;;;;;;;22.18;100.00;97194.38;5013522;28;20269;-59
2021/06/30 04:02:50;;;;;;;1.30;1.20;;;;;;;21.98;100.00;97157.25;5022853;28;20213;-59
2021/06/30 04:05:22;;;;;;;1.47;1.37;;;;;;;22.18;100.00;97194.38;5003388;28;20661;-59
2021/06/30 04:07:54;;;;;;;1.03;1.03;;;;;;;22.18;100.00;97196.94;5012663;28;20206;-59
2021/06/30 04:10:25;;;;;;;1.40;1.30;;;;;;;22.09;100.00;97179.69;5022572;28;20197;-61
2021/06/30 04:12:51;;;;;;;1.27;1.17;;;;;;;22.12;100.00;97187.44;5022957;28;20619;-61
2021/06/30 04:15:23;;;;;;;1.30;1.20;;;;;;;22.17;100.00;97190.94;5019437;28;20230;-62
2021/06/30 04:17:57;;;;;;;1.10;1.10;;;;;;;21.66;100.00;97101.09;5017725;28;20206;-62
2021/06/30 04:20:29;;;;;;;1.13;1.10;;;;;;;22.09;100.00;97182.25;5013645;28;20757;-64
2021/06/30 04:23:00;;;;;;;1.10;1.10;;;;;;;22.18;100.00;97200.38;5021622;28;20221;-62
2021/06/30 04:25:32;;;;;;;1.10;1.10;;;;;;;22.18;100.00;97202.06;5013860;28;20222;-61
2021/06/30 04:28:04;;;;;;;1.20;1.10;;;;;;;22.12;100.00;97184.88;5019462;28;20206;-62
2021/06/30 04:30:35;;;;;;;1.83;1.23;;;;;;;22.18;100.00;97184.13;5022494;28;20228;-61
2021/06/30 04:33:07;;;;;;;1.33;1.23;;;;;;;22.18;100.00;97186.69;5019401;28;20679;-62
2021/06/30 04:35:38;;;;;;;1.23;1.13;;;;;;;22.17;100.00;97177.31;5020961;28;20283;-63
2021/06/30 04:38:10;;;;;;;1.17;1.17;;;;;;;22.17;100.00;97180.69;5009122;28;20198;-61
2021/06/30 04:40:41;;;;;;;1.63;1.20;;;;;;;22.18;100.00;97189.25;5015650;28;20218;-62
2021/06/30 04:43:13;;;;;;;1.10;1.10;;;;;;;22.17;100.00;97183.25;5022821;28;20198;-61
2021/06/30 04:45:44;;;;;;;1.33;1.20;;;;;;;22.18;100.00;97181.56;5018140;28;20226;-61
2021/06/30 04:48:16;;;;;;;1.40;1.30;;;;;;;22.18;100.00;97189.25;5022269;28;20190;-62
2021/06/30 04:50:47;;;;;;;1.40;1.30;;;;;;;22.17;100.00;97196.06;5015845;28;20255;-63
2021/06/30 04:53:20;;;;;;;1.30;1.20;;;;;;;22.18;100.00;97191.81;5023910;28;20198;-61
2021/06/30 04:55:53;;;;;;;1.03;1.03;;;;;;;22.18;100.00;97202.06;5017857;28;20579;-61
2021/06/30 04:58:25;;;;;;;1.37;1.27;;;;;;;22.18;100.00;97207.16;5018640;28;20251;-61
2021/06/30 05:00:57;;;;;;;1.10;1.10;;;;;;;22.18;100.00;97213.16;5018077;28;20279;-62
2021/06/30 05:03:30;;;;;;;2.10;1.20;;;;;;;22.19;100.00;97208.88;5015315;28;20476;-62
2021/06/30 05:06:01;;;;;;;1.40;1.30;;;;;;;21.62;100.00;97113.78;5021460;28;20225;-61
2021/06/30 05:08:33;;;;;;;1.67;1.20;;;;;;;22.19;100.00;97201.22;5014500;28;20237;-61
2021/06/30 05:11:04;;;;;;;2.23;1.20;;;;;;;22.19;100.00;97206.31;5014497;28;20678;-59
2021/06/30 05:13:36;;;;;;;1.17;1.17;;;;;;;22.19;100.00;97196.97;5014021;28;20211;-62
2021/06/30 05:16:07;;;;;;;1.00;1.00;;;;;;;22.20;100.00;97208.09;5014511;28;20305;-60
2021/06/30 05:18:39;;;;;;;1.37;1.27;;;;;;;22.20;100.00;97200.41;5015049;28;20202;-61
2021/06/30 05:21:10;;;;;;;1.83;1.40;;;;;;;22.20;100.00;97206.38;5009036;28;20260;-59
2021/06/30 05:23:41;;;;;;;2.97;1.20;;;;;;;22.20;100.00;97203.81;5003456;28;20230;-59
2021/06/30 05:26:13;;;;;;;1.40;1.30;;;;;;;22.19;100.00;97212.31;4998891;28;20246;-60
2021/06/30 05:28:44;;;;;;;2.00;1.23;;;;;;;22.22;100.00;97208.94;4999445;28;20253;-59
2021/06/30 05:31:16;;;;;;;1.30;1.20;;;;;;;22.21;100.00;97210.66;5000264;28;20206;-60
2021/06/30 05:33:47;;;;;;;1.57;1.30;;;;;;;22.18;100.00;97204.59;5005812;28;21614;-59
2021/06/30 05:36:19;;;;;;;1.23;1.10;;;;;;;22.24;100.00;97217.53;5013001;28;20902;-59
2021/06/30 05:38:50;;;;;;;1.77;1.30;;;;;;;22.24;100.00;97209.88;5014308;28;20203;-59
2021/06/30 05:41:22;;;;;;;1.43;1.33;;;;;;;22.25;100.00;97214.13;5016712;28;20702;-58
2021/06/30 05:43:53;;;;;;;2.27;1.20;;;;;;;22.23;100.00;97210.69;5024103;28;20206;-59
2021/06/30 05:46:25;;;;;;;1.10;1.10;;;;;;;22.26;100.00;97211.63;5021390;28;20303;-60
2021/06/30 05:48:56;;;;;;;4.80;1.20;;;;;;;22.27;100.00;97212.50;5024369;28;20205;-59
2021/06/30 05:51:28;;;;;;;1.60;1.27;;;;;;;22.27;100.00;97210.81;5017957;28;20667;-60
2021/06/30 05:53:59;;;;;;;1.70;1.30;;;;;;;22.28;100.00;97206.53;5022735;28;20619;-60
2021/06/30 05:56:31;;;;;;;1.70;1.33;;;;;;;22.26;100.00;97203.94;5018066;28;20292;-60
2021/06/30 05:59:02;;;;;;;1.50;1.10;;;;;;;22.29;100.00;97206.56;5021278;28;20594;-59
2021/06/30 06:01:34;;;;;;;1.30;1.20;;;;;;;22.30;100.00;97203.19;5017408;28;20284;-59
2021/06/30 06:04:05;;;;;;;1.30;1.20;;;;;;;22.31;100.00;97206.59;5016629;28;20642;-59
2021/06/30 06:06:37;;;;;;;1.20;1.10;;;;;;;22.31;100.00;97202.34;5018079;28;20214;-59
2021/06/30 06:09:08;;;;;;;1.20;1.10;;;;;;;22.32;100.00;97208.34;5025308;28;20206;-59
2021/06/30 06:11:40;;;;;;;1.30;1.20;;;;;;;22.31;100.00;97209.16;5016595;28;20260;-59
2021/06/30 06:14:11;;;;;;;1.40;1.30;;;;;;;22.33;100.00;97207.50;5020444;28;20256;-59
2021/06/30 06:16:43;;;;;;;1.37;1.27;;;;;;;22.19;100.00;97186.72;5171767;22;20244;-68
2021/06/30 06:19:14;;;;;;;1.37;1.27;;;;;;;22.02;100.00;97153.94;5039501;28;20259;-67
2021/06/30 06:21:46;;;;;;;1.30;1.20;;;;;;;22.34;100.00;97214.34;5029576;28;20224;-67
2021/06/30 06:24:18;;;;;;;1.70;1.23;;;;;;;22.33;100.00;97216.06;5038572;28;20205;-64
2021/06/30 06:26:51;;;;;;;1.30;1.20;;;;;;;22.33;100.00;97217.75;5058713;28;20267;-66
2021/06/30 06:29:24;;;;;;;1.33;1.20;;;;;;;22.25;100.00;97215.00;5057299;28;20212;-67
2021/06/30 06:31:55;;;;;;;2.50;1.20;;;;;;;22.33;100.00;97230.53;5044272;28;20232;-66
2021/06/30 06:34:27;;;;;;;1.50;1.30;;;;;;;22.28;100.00;97221.88;5057969;28;20234;-67
2021/06/30 06:36:59;;;;;;;1.30;1.17;;;;;;;22.26;100.00;97213.31;5028217;28;20224;-65
2021/06/30 06:39:31;;;;;;;1.33;1.17;;;;;;;22.25;100.00;97215.00;5019508;28;20270;-67
2021/06/30 06:42:03;;;;;;;0.97;0.97;;;;;;;21.97;100.00;97160.63;5023618;28;20691;-67
2021/06/30 06:44:35;;;;;;;3.30;1.20;;;;;;;22.33;100.00;97222.84;5041677;28;20247;-67
2021/06/30 06:47:06;;;;;;;1.20;1.10;;;;;;;22.35;100.00;97226.31;5031206;28;20214;-65
2021/06/30 06:49:38;;;;;;;1.30;1.20;;;;;;;22.34;100.00;97222.00;5057365;28;20785;-65
2021/06/30 06:52:09;;;;;;;6.63;1.20;;;;;;;22.34;100.00;97227.13;5053494;28;20200;-65
2021/06/30 06:54:41;;;;;;;1.63;1.20;;;;;;;22.27;100.00;97212.50;5055609;28;20242;-67
2021/06/30 06:57:12;;;;;;;1.10;1.10;;;;;;;22.34;100.00;97225.44;5028009;28;20526;-68
2021/06/30 06:59:44;;;;;;;1.00;1.00;;;;;;;22.34;100.00;97214.34;5039559;28;20240;-67
2021/06/30 07:02:15;;;;;;;1.07;1.03;;;;;;;22.34;100.00;97214.34;5015212;28;20310;-67
2021/06/30 07:04:47;;;;;;;1.23;1.13;;;;;;;22.35;100.00;97223.75;5050474;28;20270;-67
2021/06/30 07:07:19;;;;;;;3.23;1.20;;;;;;;22.34;100.00;97222.88;5051374;28;20258;-66
2021/06/30 07:09:50;;;;;;;1.10;1.10;;;;;;;22.25;100.00;97206.47;5001231;28;20197;-67
2021/06/30 07:12:20;;;;;;;1.30;1.20;;;;;;;22.28;100.00;97212.53;5050684;28;20621;-67
2021/06/30 07:14:52;;;;;;;1.37;1.20;;;;;;;22.35;100.00;97221.22;5024955;28;20201;-67
2021/06/30 07:17:23;;;;;;;1.13;1.13;;;;;;;22.28;100.00;97203.97;5053993;28;20233;-67
2021/06/30 07:19:55;;;;;;;1.40;1.00;;;;;;;22.34;100.00;97222.88;5023915;28;20205;-67
2021/06/30 07:22:26;;;;;;;1.20;1.10;;;;;;;22.35;100.00;97223.75;5039467;28;20229;-65
2021/06/30 07:24:58;;;;;;;1.30;1.20;;;;;;;22.26;100.00;97200.53;5040763;28;20526;-68
2021/06/30 07:27:29;;;;;;;1.50;1.00;;;;;;;22.35;100.00;97213.53;5035257;28;20263;-67
2021/06/30 07:30:01;;;;;;;1.20;1.10;;;;;;;22.35;100.00;97226.31;5045690;28;20196;-66
2021/06/30 07:32:33;;;;;;;1.17;1.07;;;;;;;22.21;100.00;97200.44;5038893;28;20200;-67
2021/06/30 07:35:04;;;;;;;1.40;1.20;;;;;;;22.03;100.00;97169.31;5022146;28;20318;-67
2021/06/30 07:37:36;;;;;;;1.77;1.10;;;;;;;22.35;100.00;97234.84;5018567;28;20204;-67
2021/06/30 07:40:08;;;;;;;1.53;1.40;;;;;;;22.35;100.00;97232.28;5053745;28;20189;-67
2021/06/30 07:42:40;;;;;;;1.37;1.27;;;;;;;22.30;100.00;97218.56;5055213;28;20263;-65
2021/06/30 07:45:12;;;;;;;1.03;1.03;;;;;;;22.27;100.00;97213.38;5043490;28;20224;-67
2021/06/30 07:47:38;;;;;;;0.90;0.90;;;;;;;22.35;100.00;97222.06;5011924;28;20239;-67
2021/06/30 07:50:06;;;;;;;1.30;1.20;;;;;;;22.27;100.00;97213.38;5038469;28;20262;-67
2021/06/30 07:52:33;;;;;;;1.03;1.03;;;;;;;22.28;100.00;97212.53;5041295;28;20548;-67
2021/06/30 07:54:59;;;;;;;1.10;1.00;;;;;;;22.28;100.00;97204.84;5044824;28;20220;-67
2021/06/30 07:57:26;;;;;;;0.93;0.93;;;;;;;22.36;100.00;97228.91;5043095;28;20591;-68
2021/06/30 07:59:53;;;;;;;0.90;0.90;;;;;;;22.37;100.00;97219.53;5057990;28;20287;-67
2021/06/30 08:02:19;;;;;;;1.27;1.17;;;;;;;22.24;100.00;97200.50;5059596;28;20343;-68
2021/06/30 08:04:46;;;;;;;1.00;1.00;;;;;;;22.32;100.00;97219.41;5034120;28;20296;-65
2021/06/30 08:07:12;;;;;;;1.00;1.00;;;;;;;22.36;100.00;97236.59;5056431;28;20291;-67
2021/06/30 08:09:39;;;;;;;1.13;1.00;;;;;;;22.32;100.00;97232.22;5046084;28;20208;-66
2021/06/30 08:12:06;;;;;;;1.10;1.10;;;;;;;22.33;100.00;97230.53;5042442;28;20722;-70
2021/06/30 08:14:33;;;;;;;1.00;1.00;;;;;;;22.14;100.00;97200.25;5040288;28;20211;-67
2021/06/30 08:17:03;;;;;;;1.00;1.00;;;;;;;22.36;100.00;97236.59;5024451;28;20683;-64
2021/06/30 08:19:30;;;;;;;1.20;1.10;;;;;;;22.37;100.00;97234.88;5050408;28;20228;-64
2021/06/30 08:21:57;;;;;;;1.00;1.00;;;;;;;22.15;100.00;97207.97;5042355;28;20732;-67
2021/06/30 08:24:24;;;;;;;1.27;1.10;;;;;;;22.13;100.00;97203.63;5043015;28;20220;-67
2021/06/30 08:26:51;;;;;;;1.17;1.07;;;;;;;22.14;100.00;97205.38;5022415;28;20278;-65
2021/06/30 08:29:20;;;;;;;1.00;1.00;;;;;;;22.29;100.00;97223.63;5039371;28;20743;-68
2021/06/30 08:31:47;;;;;;;1.00;1.00;;;;;;;22.30;100.00;97213.44;5038246;28;20232;-68
2021/06/30 08:34:14;;;;;;;1.10;1.10;;;;;;;22.37;100.00;97227.19;5038683;28;20287;-67
2021/06/30 08:36:41;;;;;;;0.90;0.90;;;;;;;22.37;100.00;97227.19;5043445;28;20304;-67
2021/06/30 08:39:09;;;;;;;2.27;1.10;;;;;;;22.34;100.00;97222.00;5053514;28;20197;-67
2021/06/30 08:41:36;;;;;;;0.90;0.90;;;;;;;22.35;100.00;97222.06;5041542;28;20225;-67
2021/06/30 08:44:03;;;;;;;1.30;1.20;;;;;;;22.38;100.00;97232.34;5056254;28;20201;-67
2021/06/30 08:46:32;;;;;;;1.20;1.10;;;;;;;22.38;100.00;97228.94;5009776;28;20270;-63
2021/06/30 08:48:59;;;;;;;1.33;1.00;;;;;;;22.24;100.00;97212.41;5039500;28;20289;-68
2021/06/30 08:51:26;;;;;;;1.00;1.00;;;;;;;22.30;100.00;97221.09;4997298;28;20282;-67
2021/06/30 08:53:56;;;;;;;0.90;0.90;;;;;;;22.37;100.00;97229.75;5024222;28;20279;-67
2021/06/30 08:56:32;;;;;;;1.00;1.00;;;;;;;22.09;100.00;97183.94;5047339;28;20700;-67
2021/06/30 08:58:59;;;;;;;1.43;1.20;;;;;;;22.37;100.00;97237.44;5031538;28;20244;-67
2021/06/30 09:01:26;;;;;;;1.00;1.00;;;;;;;22.37;100.00;97229.75;5053412;28;20220;-67
2021/06/30 09:03:55;;;;;;;0.90;0.90;;;;;;;22.19;100.00;97204.66;5059232;28;20244;-68
2021/06/30 09:06:22;;;;;;;0.90;0.90;;;;;;;21.24;100.00;97037.91;5029244;28;20227;-67
2021/06/30 09:08:49;;;;;;;1.13;1.00;;;;;;;22.37;100.00;97233.19;5044291;28;20636;-67
2021/06/30 09:11:18;;;;;;;1.10;1.10;;;;;;;22.37;100.00;97229.75;5059115;28;20224;-67
2021/06/30 09:13:44;;;;;;;2.93;1.10;;;;;;;22.29;100.00;97215.97;5039372;28;20232;-66
2021/06/30 09:16:11;;;;;;;3.37;1.07;;;;;;;22.36;100.00;97226.34;5026912;28;20259;-66
2021/06/30 09:18:39;;;;;;;0.97;0.97;;;;;;;22.29;100.00;97210.84;5036252;28;20244;-66
2021/06/30 09:21:29;;;;;;;1.90;1.20;;;;;;;22.37;100.00;97219.53;5041742;28;20637;-66
2021/06/30 09:23:58;;;;;;;1.13;1.10;;;;;;;22.37;100.00;97227.19;5062514;28;20200;-66
2021/06/30 09:26:26;;;;;;;0.90;0.90;;;;;;;22.37;100.00;97234.88;5054399;28;20307;-67
2021/06/30 09:29:13;;;;;;;1.10;1.00;;;;;;;22.38;100.00;97224.69;5008355;28;20230;-68
2021/06/30 09:31:44;;;;;;;1.20;1.10;;;;;;;22.01;100.00;97172.66;5054377;28;20296;-65
2021/06/30 09:34:11;;;;;;;1.40;1.30;;;;;;;22.29;100.00;97221.91;5023644;28;20288;-66
2021/06/30 09:36:50;;;;;;;1.03;1.03;;;;;;;22.39;100.00;97244.34;5049799;28;20307;-68
2021/06/30 09:39:17;;;;;;;0.93;0.93;;;;;;;22.08;100.00;97200.13;5037468;28;20275;-66
2021/06/30 09:41:44;;;;;;;0.90;0.90;;;;;;;22.39;100.00;97248.59;5017428;28;20308;-67
2021/06/30 09:44:18;;;;;;;0.90;0.90;;;;;;;22.30;100.00;97241.59;5046754;28;20203;-65
2021/06/30 09:46:45;;;;;;;0.90;0.90;;;;;;;22.37;100.00;97251.13;5026253;28;20312;-68
2021/06/30 09:49:14;;;;;;;0.90;0.90;;;;;;;22.24;100.00;97230.34;5033321;28;20231;-66
2021/06/30 09:51:41;;;;;;;1.10;1.10;;;;;;;22.40;100.00;97250.31;5030342;28;20231;-64
2021/06/30 09:54:13;;;;;;;3.17;0.90;;;;;;;22.30;100.00;97228.78;5057048;28;20197;-66
2021/06/30 09:56:41;;;;;;;0.90;0.90;;;;;;;22.39;100.00;97244.34;5033640;28;20243;-67
2021/06/30 09:59:13;;;;;;;2.40;0.90;;;;;;;22.40;100.00;97240.94;5023387;28;20800;-68
2021/06/30 10:01:40;;;;;;;1.00;1.00;;;;;;;22.31;100.00;97227.94;5060582;28;20244;-66
2021/06/30 10:04:09;;;;;;;1.00;1.00;;;;;;;22.41;100.00;97231.56;5049435;28;20676;-67
2021/06/30 10:06:36;;;;;;;1.10;1.10;;;;;;;22.24;100.00;97205.63;5031847;28;20461;-67
2021/06/30 10:09:13;;;;;;;1.67;1.10;;;;;;;22.11;100.00;97187.41;5006085;28;20197;-65
2021/06/30 10:11:39;;;;;;;1.10;1.00;;;;;;;22.41;100.00;97236.69;5030171;28;20250;-67
2021/06/30 10:14:06;;;;;;;2.70;1.00;;;;;;;22.39;100.00;97226.44;5060246;28;20697;-67
2021/06/30 10:16:32;;;;;;;1.17;1.07;;;;;;;;;;5059229;28;20780;-68
2021/06/30 10:19:00;;;;;;;2.90;1.20;;;;;;;22.25;100.00;97198.78;5031126;28;20212;-67
2021/06/30 10:21:29;;;;;;;3.37;1.07;;;;;;;22.30;100.00;97208.31;5016492;28;20243;-67
2021/06/30 10:23:56;;;;;;;0.97;0.97;;;;;;;22.31;100.00;97212.59;5017362;28;20197;-65
2021/06/30 10:26:23;;;;;;;2.03;1.10;;;;;;;22.41;100.00;97226.47;5021789;28;20249;-68
2021/06/30 10:28:53;;;;;;;0.97;0.90;;;;;;;22.30;100.00;97205.75;5041938;28;20259;-64
2021/06/30 10:31:20;;;;;;;3.43;1.23;;;;;;;22.33;100.00;97210.06;5028845;28;20232;-67
2021/06/30 10:34:11;;;;;;;5.83;1.20;;;;;;;22.41;100.00;97226.47;5023979;28;20648;-67
2021/06/30 10:36:54;;;;;;;1.03;1.00;;;;;;;22.35;100.00;97214.38;5035708;28;20588;-68
2021/06/30 10:39:36;;;;;;;1.20;1.10;;;;;;;22.40;100.00;97228.13;5013373;28;20239;-67
2021/06/30 10:42:33;;;;;;;2.30;1.30;;;;;;;22.40;100.00;97222.16;5045698;28;20705;-66
2021/06/30 10:45:24;;;;;;;2.47;1.30;;;;;;;22.39;100.00;97223.00;5040880;28;20192;-67
2021/06/30 10:47:51;;;;;;;1.20;1.10;;;;;;;22.39;100.00;97220.44;5040037;28;20624;-64
2021/06/30 10:50:18;;;;;;;1.67;1.20;;;;;;;22.37;100.00;97219.53;5058280;28;20197;-67
2021/06/30 10:53:05;;;;;;;1.83;1.20;;;;;;;22.37;100.00;97212.72;5039562;28;20420;-67
2021/06/30 10:55:32;;;;;;;3.13;1.13;;;;;;;22.19;100.00;97188.41;5040663;28;20251;-67
2021/06/30 10:58:14;;;;;;;1.60;1.10;;;;;;;22.37;100.00;97206.72;5058899;28;20200;-67
2021/06/30 11:00:51;;;;;;;5.23;1.37;;;;;;;22.36;100.00;97205.88;5042514;28;20254;-68
2021/06/30 11:04:01;;;;;;;1.93;1.20;;;;;;;22.36;100.00;97193.06;5045683;28;20236;-68
2021/06/30 11:06:31;;;;;;;1.77;1.23;;;;;;;22.35;100.00;97193.88;5056449;28;20262;-66
2021/06/30 11:09:02;;;;;;;1.53;1.30;;;;;;;22.37;100.00;97191.34;5041286;28;20216;-67
2021/06/30 11:11:35;;;;;;;1.53;1.30;;;;;;;22.36;100.00;97197.31;5053850;28;20193;-66
2021/06/30 11:14:11;;;;;;;1.63;1.20;;;;;;;22.36;100.00;97185.41;5051213;28;20205;-67
2021/06/30 11:16:40;;;;;;;1.37;1.20;;;;;;;22.36;100.00;97190.50;5048535;28;20307;-67
2021/06/30 11:19:08;;;;;;;2.70;1.30;;;;;;;22.36;100.00;97187.94;5047813;28;20204;-68
2021/06/30 11:21:53;;;;;;;1.20;1.10;;;;;;;22.37;100.00;97178.56;5042609;28;20256;-67
2021/06/30 11:24:48;;;;;;;1.60;1.17;;;;;;;22.36;100.00;97172.59;5034834;28;20220;-68
2021/06/30 11:27:22;;;;;;;1.30;1.20;;;;;;;22.36;100.00;97179.41;5048497;28;20621;-68
2021/06/30 11:29:54;;;;;;;1.50;1.30;;;;;;;22.36;100.00;97181.97;5046540;28;20292;-67
2021/06/30 11:32:39;;;;;;;5.00;1.43;;;;;;;22.36;100.00;97187.06;5019460;28;20256;-66
2021/06/30 11:35:09;;;;;;;2.77;1.20;;;;;;;22.36;100.00;97187.06;5035182;28;20221;-66
2021/06/30 11:37:43;;;;;;;1.20;1.10;;;;;;;22.17;100.00;97160.22;5037293;28;20255;-66
2021/06/30 11:42:46;;;;;;;1.83;1.40;;;;;;;22.36;100.00;97192.19;5037710;28;20298;-66
2021/06/30 11:45:19;;;;;;;2.17;1.33;;;;;;;22.27;100.00;97172.41;5037263;28;20728;-68
2021/06/30 11:47:47;;;;;;;3.40;1.70;;;;;;;22.06;100.00;97125.88;5044055;28;20204;-66